sensor_id;sensor_type;location;lat;lon;timestamp;temperature;humidity
37646;DHT22;23489;49.600;6.138;2023-01-15T00:02:05;7.80;99.90
37646;DHT22;23489;49.600;6.138;2023-01-15T00:04:31;7.80;99.90
37646;DHT22;23489;49.600;6.138;2023-01-15T00:06:56;7.70;99.90
37646;DHT22;23489;49.600;6.138;2023-01-15T00:09:22;7.70;99.90
37646;DHT22;23489;49.600;6.138;2023-01-15T00:11:48;7.60;99.90
37646;DHT22;23489;49.600;6.138;2023-01-15T00:14:13;7.60;99.90
37646;DHT22;23489;49.600;6.138;2023-01-15T00:16:39;7.50;99.90
37646;DHT22;23489;49.600;6.138;2023-01-15T00:19:05;7.50;99.90
37646;DHT22;23489;49.600;6.138;2023-01-15T00:21:33;7.40;99.90
37646;DHT22;23489;49.600;6.138;2023-01-15T00:23:59;7.40;99.90
37646;DHT22;23489;49.600;6.138;2023-01-15T00:26:43;7.40;99.90
37646;DHT22;23489;49.600;6.138;2023-01-15T00:29:28;7.30;99.90
37646;DHT22;23489;49.600;6.138;2023-01-15T00:31:59;7.30;99.90
37646;DHT22;23489;49.600;6.138;2023-01-15T00:34:26;7.30;99.90
37646;DHT22;23489;49.600;6.138;2023-01-15T00:36:52;7.20;99.90
37646;DHT22;23489;49.600;6.138;2023-01-15T00:39:18;7.10;99.90
37646;DHT22;23489;49.600;6.138;2023-01-15T00:41:45;7.00;99.90
37646;DHT22;23489;49.600;6.138;2023-01-15T00:44:11;6.90;99.90
37646;DHT22;23489;49.600;6.138;2023-01-15T00:46:37;6.80;99.90
37646;DHT22;23489;49.600;6.138;2023-01-15T00:49:03;6.70;99.90
37646;DHT22;23489;49.600;6.138;2023-01-15T00:51:29;6.60;99.90
37646;DHT22;23489;49.600;6.138;2023-01-15T00:53:55;6.60;99.90
37646;DHT22;23489;49.600;6.138;2023-01-15T00:56:20;6.50;99.90
37646;DHT22;23489;49.600;6.138;2023-01-15T00:58:46;6.50;99.90
37646;DHT22;23489;49.600;6.138;2023-01-15T01:01:13;6.40;99.90
37646;DHT22;23489;49.600;6.138;2023-01-15T01:03:39;6.40;99.90
37646;DHT22;23489;49.600;6.138;2023-01-15T01:06:05;6.40;99.90
37646;DHT22;23489;49.600;6.138;2023-01-15T01:08:31;6.30;99.90
37646;DHT22;23489;49.600;6.138;2023-01-15T01:11:08;6.30;99.90
37646;DHT22;23489;49.600;6.138;2023-01-15T01:13:36;6.30;99.90
37646;DHT22;23489;49.600;6.138;2023-01-15T01:16:02;6.20;99.90
37646;DHT22;23489;49.600;6.138;2023-01-15T01:18:29;6.20;99.90
37646;DHT22;23489;49.600;6.138;2023-01-15T01:20:55;6.20;99.90
37646;DHT22;23489;49.600;6.138;2023-01-15T01:23:24;6.20;99.90
37646;DHT22;23489;49.600;6.138;2023-01-15T01:25:49;6.10;99.90
37646;DHT22;23489;49.600;6.138;2023-01-15T01:28:15;6.10;99.90
37646;DHT22;23489;49.600;6.138;2023-01-15T01:30:41;6.10;99.90
37646;DHT22;23489;49.600;6.138;2023-01-15T01:33:06;6.10;99.90
37646;DHT22;23489;49.600;6.138;2023-01-15T01:35:32;6.10;99.90
37646;DHT22;23489;49.600;6.138;2023-01-15T01:37:58;6.10;99.90
37646;DHT22;23489;49.600;6.138;2023-01-15T01:40:24;6.10;99.90
37646;DHT22;23489;49.600;6.138;2023-01-15T01:42:49;6.10;99.90
37646;DHT22;23489;49.600;6.138;2023-01-15T01:45:26;6.10;99.90
37646;DHT22;23489;49.600;6.138;2023-01-15T01:47:59;6.10;99.90
37646;DHT22;23489;49.600;6.138;2023-01-15T01:50:27;6.00;99.90
37646;DHT22;23489;49.600;6.138;2023-01-15T01:53:06;6.00;99.90
37646;DHT22;23489;49.600;6.138;2023-01-15T01:55:34;6.00;99.90
37646;DHT22;23489;49.600;6.138;2023-01-15T01:58:02;6.00;99.90
37646;DHT22;23489;49.600;6.138;2023-01-15T02:00:30;5.90;99.90
37646;DHT22;23489;49.600;6.138;2023-01-15T02:02:58;5.90;99.90
37646;DHT22;23489;49.600;6.138;2023-01-15T02:05:31;5.90;99.90
37646;DHT22;23489;49.600;6.138;2023-01-15T02:07:59;5.90;99.90
37646;DHT22;23489;49.600;6.138;2023-01-15T02:10:26;5.80;99.90
37646;DHT22;23489;49.600;6.138;2023-01-15T02:13:10;5.80;99.90
37646;DHT22;23489;49.600;6.138;2023-01-15T02:15:50;5.80;99.90
37646;DHT22;23489;49.600;6.138;2023-01-15T02:18:29;5.80;99.90
37646;DHT22;23489;49.600;6.138;2023-01-15T02:21:03;5.70;99.90
37646;DHT22;23489;49.600;6.138;2023-01-15T02:29:05;5.60;99.90
37646;DHT22;23489;49.600;6.138;2023-01-15T02:31:36;5.60;99.90
37646;DHT22;23489;49.600;6.138;2023-01-15T02:34:11;5.60;99.90
37646;DHT22;23489;49.600;6.138;2023-01-15T02:36:42;5.50;99.90
37646;DHT22;23489;49.600;6.138;2023-01-15T02:39:19;5.50;99.90
37646;DHT22;23489;49.600;6.138;2023-01-15T02:41:49;5.50;99.90
37646;DHT22;23489;49.600;6.138;2023-01-15T02:44:19;5.40;99.90
37646;DHT22;23489;49.600;6.138;2023-01-15T02:46:47;5.40;99.90
37646;DHT22;23489;49.600;6.138;2023-01-15T02:49:17;5.40;99.90
37646;DHT22;23489;49.600;6.138;2023-01-15T02:51:51;5.40;99.90
37646;DHT22;23489;49.600;6.138;2023-01-15T02:54:23;5.40;99.90
37646;DHT22;23489;49.600;6.138;2023-01-15T02:56:51;5.40;99.90
37646;DHT22;23489;49.600;6.138;2023-01-15T02:59:22;5.40;99.90
37646;DHT22;23489;49.600;6.138;2023-01-15T03:01:54;5.40;99.90
37646;DHT22;23489;49.600;6.138;2023-01-15T03:04:31;5.40;99.90
37646;DHT22;23489;49.600;6.138;2023-01-15T03:09:37;5.50;99.90
37646;DHT22;23489;49.600;6.138;2023-01-15T03:15:14;5.40;99.90
37646;DHT22;23489;49.600;6.138;2023-01-15T03:18:05;5.50;99.90
37646;DHT22;23489;49.600;6.138;2023-01-15T03:20:35;5.40;99.90
37646;DHT22;23489;49.600;6.138;2023-01-15T03:23:08;5.30;99.90
37646;DHT22;23489;49.600;6.138;2023-01-15T03:25:42;5.30;99.90
37646;DHT22;23489;49.600;6.138;2023-01-15T03:28:11;5.30;99.90
37646;DHT22;23489;49.600;6.138;2023-01-15T03:30:39;5.20;99.90
37646;DHT22;23489;49.600;6.138;2023-01-15T03:33:05;5.20;99.90
37646;DHT22;23489;49.600;6.138;2023-01-15T03:35:47;5.20;99.90
37646;DHT22;23489;49.600;6.138;2023-01-15T03:38:28;5.20;99.90
37646;DHT22;23489;49.600;6.138;2023-01-15T03:43:42;5.10;99.90
37646;DHT22;23489;49.600;6.138;2023-01-15T03:46:43;5.10;99.90
37646;DHT22;23489;49.600;6.138;2023-01-15T03:52:18;4.90;99.90
37646;DHT22;23489;49.600;6.138;2023-01-15T03:57:29;4.90;99.90
37646;DHT22;23489;49.600;6.138;2023-01-15T04:00:00;4.80;99.90
37646;DHT22;23489;49.600;6.138;2023-01-15T04:02:30;4.80;99.90
37646;DHT22;23489;49.600;6.138;2023-01-15T04:04:57;4.80;99.90
37646;DHT22;23489;49.600;6.138;2023-01-15T04:07:24;4.70;99.90
37646;DHT22;23489;49.600;6.138;2023-01-15T04:09:50;4.70;99.90
37646;DHT22;23489;49.600;6.138;2023-01-15T04:12:16;4.70;99.90
37646;DHT22;23489;49.600;6.138;2023-01-15T04:14:46;4.70;99.90
37646;DHT22;23489;49.600;6.138;2023-01-15T04:17:16;4.70;99.90
37646;DHT22;23489;49.600;6.138;2023-01-15T04:19:42;4.70;99.90
37646;DHT22;23489;49.600;6.138;2023-01-15T04:22:10;4.70;99.90
37646;DHT22;23489;49.600;6.138;2023-01-15T04:24:36;4.80;99.90
37646;DHT22;23489;49.600;6.138;2023-01-15T04:27:01;4.80;99.90
37646;DHT22;23489;49.600;6.138;2023-01-15T04:29:27;4.80;99.90
37646;DHT22;23489;49.600;6.138;2023-01-15T04:31:53;4.90;99.90
37646;DHT22;23489;49.600;6.138;2023-01-15T04:34:24;4.90;99.90
37646;DHT22;23489;49.600;6.138;2023-01-15T04:36:50;4.90;99.90
37646;DHT22;23489;49.600;6.138;2023-01-15T04:39:16;4.80;99.90
37646;DHT22;23489;49.600;6.138;2023-01-15T04:41:42;4.90;99.90
37646;DHT22;23489;49.600;6.138;2023-01-15T04:44:26;4.90;99.90
37646;DHT22;23489;49.600;6.138;2023-01-15T04:46:54;4.90;99.90
37646;DHT22;23489;49.600;6.138;2023-01-15T04:49:20;4.90;99.90
37646;DHT22;23489;49.600;6.138;2023-01-15T04:51:46;4.90;99.90
37646;DHT22;23489;49.600;6.138;2023-01-15T04:54:14;4.90;99.90
37646;DHT22;23489;49.600;6.138;2023-01-15T04:56:45;4.90;99.90
37646;DHT22;23489;49.600;6.138;2023-01-15T04:59:12;4.90;99.90
37646;DHT22;23489;49.600;6.138;2023-01-15T05:01:38;4.90;99.90
37646;DHT22;23489;49.600;6.138;2023-01-15T05:04:04;4.80;99.90
37646;DHT22;23489;49.600;6.138;2023-01-15T05:06:30;4.80;99.90
37646;DHT22;23489;49.600;6.138;2023-01-15T05:08:56;4.80;99.90
37646;DHT22;23489;49.600;6.138;2023-01-15T05:11:22;4.90;99.90
37646;DHT22;23489;49.600;6.138;2023-01-15T05:13:48;4.90;99.90
37646;DHT22;23489;49.600;6.138;2023-01-15T05:16:25;4.90;99.90
37646;DHT22;23489;49.600;6.138;2023-01-15T05:18:54;4.90;99.90
37646;DHT22;23489;49.600;6.138;2023-01-15T05:21:23;4.90;99.90
37646;DHT22;23489;49.600;6.138;2023-01-15T05:23:51;4.80;99.90
37646;DHT22;23489;49.600;6.138;2023-01-15T05:26:19;4.90;99.90
37646;DHT22;23489;49.600;6.138;2023-01-15T05:28:46;4.80;99.90
37646;DHT22;23489;49.600;6.138;2023-01-15T05:31:14;4.80;99.90
37646;DHT22;23489;49.600;6.138;2023-01-15T05:33:41;4.80;99.90
37646;DHT22;23489;49.600;6.138;2023-01-15T05:36:10;4.80;99.90
37646;DHT22;23489;49.600;6.138;2023-01-15T05:38:36;4.70;99.90
37646;DHT22;23489;49.600;6.138;2023-01-15T05:41:03;4.70;99.90
37646;DHT22;23489;49.600;6.138;2023-01-15T05:43:49;4.70;99.90
37646;DHT22;23489;49.600;6.138;2023-01-15T05:46:14;4.70;99.90
37646;DHT22;23489;49.600;6.138;2023-01-15T05:48:40;4.70;99.90
37646;DHT22;23489;49.600;6.138;2023-01-15T05:51:06;4.70;99.90
37646;DHT22;23489;49.600;6.138;2023-01-15T05:53:32;4.50;99.90
37646;DHT22;23489;49.600;6.138;2023-01-15T05:56:02;4.40;99.90
37646;DHT22;23489;49.600;6.138;2023-01-15T05:58:28;4.30;99.90
37646;DHT22;23489;49.600;6.138;2023-01-15T06:00:54;4.30;99.90
37646;DHT22;23489;49.600;6.138;2023-01-15T06:03:21;4.30;99.90
37646;DHT22;23489;49.600;6.138;2023-01-15T06:05:54;4.30;99.90
37646;DHT22;23489;49.600;6.138;2023-01-15T06:08:22;4.30;99.90
37646;DHT22;23489;49.600;6.138;2023-01-15T06:10:48;4.30;99.90
37646;DHT22;23489;49.600;6.138;2023-01-15T06:13:15;4.20;99.90
37646;DHT22;23489;49.600;6.138;2023-01-15T06:15:41;4.20;99.90
37646;DHT22;23489;49.600;6.138;2023-01-15T06:18:07;4.30;99.90
37646;DHT22;23489;49.600;6.138;2023-01-15T06:20:37;4.30;99.90
37646;DHT22;23489;49.600;6.138;2023-01-15T06:23:03;4.30;99.90
37646;DHT22;23489;49.600;6.138;2023-01-15T06:25:28;4.30;99.90
37646;DHT22;23489;49.600;6.138;2023-01-15T06:27:54;4.30;99.90
37646;DHT22;23489;49.600;6.138;2023-01-15T06:30:20;4.20;99.90
37646;DHT22;23489;49.600;6.138;2023-01-15T06:32:46;4.20;99.90
37646;DHT22;23489;49.600;6.138;2023-01-15T06:35:11;4.10;99.90
37646;DHT22;23489;49.600;6.138;2023-01-15T06:37:38;4.00;99.90
37646;DHT22;23489;49.600;6.138;2023-01-15T06:40:04;4.00;99.90
37646;DHT22;23489;49.600;6.138;2023-01-15T06:42:30;3.90;99.90
37646;DHT22;23489;49.600;6.138;2023-01-15T06:45:15;3.90;99.90
37646;DHT22;23489;49.600;6.138;2023-01-15T06:48:00;3.90;99.90
37646;DHT22;23489;49.600;6.138;2023-01-15T06:50:25;3.90;99.90
37646;DHT22;23489;49.600;6.138;2023-01-15T06:52:51;3.90;99.90
37646;DHT22;23489;49.600;6.138;2023-01-15T06:55:17;3.90;99.90
37646;DHT22;23489;49.600;6.138;2023-01-15T06:57:44;4.00;99.90
37646;DHT22;23489;49.600;6.138;2023-01-15T07:00:10;4.10;99.90
37646;DHT22;23489;49.600;6.138;2023-01-15T07:02:36;4.10;99.90
37646;DHT22;23489;49.600;6.138;2023-01-15T07:05:03;4.10;99.90
37646;DHT22;23489;49.600;6.138;2023-01-15T07:07:29;4.10;99.90
37646;DHT22;23489;49.600;6.138;2023-01-15T07:09:55;4.20;99.90
37646;DHT22;23489;49.600;6.138;2023-01-15T07:12:21;4.20;99.90
37646;DHT22;23489;49.600;6.138;2023-01-15T07:14:47;4.30;99.90
37646;DHT22;23489;49.600;6.138;2023-01-15T07:17:13;4.30;99.90
37646;DHT22;23489;49.600;6.138;2023-01-15T07:19:38;4.30;99.90
37646;DHT22;23489;49.600;6.138;2023-01-15T07:22:05;4.40;99.90
37646;DHT22;23489;49.600;6.138;2023-01-15T07:24:31;4.40;99.90
37646;DHT22;23489;49.600;6.138;2023-01-15T07:26:57;4.50;99.90
37646;DHT22;23489;49.600;6.138;2023-01-15T07:29:22;4.50;99.90
37646;DHT22;23489;49.600;6.138;2023-01-15T07:31:49;4.50;99.90
37646;DHT22;23489;49.600;6.138;2023-01-15T07:34:14;4.60;99.90
37646;DHT22;23489;49.600;6.138;2023-01-15T07:36:40;4.20;99.90
37646;DHT22;23489;49.600;6.138;2023-01-15T07:39:08;4.00;99.90
37646;DHT22;23489;49.600;6.138;2023-01-15T07:41:34;3.70;99.90
37646;DHT22;23489;49.600;6.138;2023-01-15T07:44:19;3.60;99.90
37646;DHT22;23489;49.600;6.138;2023-01-15T07:47:13;3.60;99.90
37646;DHT22;23489;49.600;6.138;2023-01-15T07:49:58;3.60;99.90
37646;DHT22;23489;49.600;6.138;2023-01-15T07:52:24;3.40;99.90
37646;DHT22;23489;49.600;6.138;2023-01-15T07:54:50;3.40;99.90
37646;DHT22;23489;49.600;6.138;2023-01-15T07:57:18;3.50;99.90
37646;DHT22;23489;49.600;6.138;2023-01-15T07:59:44;3.50;99.90
37646;DHT22;23489;49.600;6.138;2023-01-15T08:02:10;3.60;99.90
37646;DHT22;23489;49.600;6.138;2023-01-15T08:04:36;3.60;99.90
37646;DHT22;23489;49.600;6.138;2023-01-15T08:07:02;3.60;99.90
37646;DHT22;23489;49.600;6.138;2023-01-15T08:09:29;3.60;99.90
37646;DHT22;23489;49.600;6.138;2023-01-15T08:11:57;3.50;99.90
37646;DHT22;23489;49.600;6.138;2023-01-15T08:14:41;3.50;99.90
37646;DHT22;23489;49.600;6.138;2023-01-15T08:17:26;3.30;99.90
37646;DHT22;23489;49.600;6.138;2023-01-15T08:19:51;3.00;99.90
37646;DHT22;23489;49.600;6.138;2023-01-15T08:22:17;2.80;99.90
37646;DHT22;23489;49.600;6.138;2023-01-15T08:24:42;2.60;99.90
37646;DHT22;23489;49.600;6.138;2023-01-15T08:27:08;2.50;99.90
37646;DHT22;23489;49.600;6.138;2023-01-15T08:29:34;2.30;99.90
37646;DHT22;23489;49.600;6.138;2023-01-15T08:31:59;2.30;99.90
37646;DHT22;23489;49.600;6.138;2023-01-15T08:34:25;2.30;99.90
37646;DHT22;23489;49.600;6.138;2023-01-15T08:36:51;2.10;99.90
37646;DHT22;23489;49.600;6.138;2023-01-15T08:39:22;1.90;99.90
37646;DHT22;23489;49.600;6.138;2023-01-15T08:41:47;1.80;99.90
37646;DHT22;23489;49.600;6.138;2023-01-15T08:44:13;1.80;99.90
37646;DHT22;23489;49.600;6.138;2023-01-15T08:46:41;1.80;99.90
37646;DHT22;23489;49.600;6.138;2023-01-15T08:49:09;1.90;99.90
37646;DHT22;23489;49.600;6.138;2023-01-15T08:51:35;1.90;99.90
37646;DHT22;23489;49.600;6.138;2023-01-15T08:54:00;1.90;99.90
37646;DHT22;23489;49.600;6.138;2023-01-15T08:56:26;1.90;99.90
37646;DHT22;23489;49.600;6.138;2023-01-15T08:58:52;2.00;99.90
37646;DHT22;23489;49.600;6.138;2023-01-15T09:01:18;2.00;99.90
37646;DHT22;23489;49.600;6.138;2023-01-15T09:03:44;2.10;99.90
37646;DHT22;23489;49.600;6.138;2023-01-15T09:06:09;2.20;99.90
37646;DHT22;23489;49.600;6.138;2023-01-15T09:08:36;2.20;99.90
37646;DHT22;23489;49.600;6.138;2023-01-15T09:11:03;2.20;99.90
37646;DHT22;23489;49.600;6.138;2023-01-15T09:13:29;2.30;99.90
37646;DHT22;23489;49.600;6.138;2023-01-15T09:16:01;2.40;99.90
37646;DHT22;23489;49.600;6.138;2023-01-15T09:18:27;2.50;99.90
37646;DHT22;23489;49.600;6.138;2023-01-15T09:20:53;2.50;99.90
37646;DHT22;23489;49.600;6.138;2023-01-15T09:23:19;2.60;99.90
37646;DHT22;23489;49.600;6.138;2023-01-15T09:25:56;2.70;99.90
37646;DHT22;23489;49.600;6.138;2023-01-15T09:28:22;2.70;99.90
37646;DHT22;23489;49.600;6.138;2023-01-15T09:30:49;2.80;99.90
37646;DHT22;23489;49.600;6.138;2023-01-15T09:33:14;2.80;99.90
37646;DHT22;23489;49.600;6.138;2023-01-15T09:35:42;2.90;99.90
37646;DHT22;23489;49.600;6.138;2023-01-15T09:38:17;2.90;99.90
37646;DHT22;23489;49.600;6.138;2023-01-15T09:46:14;3.20;99.90
37646;DHT22;23489;49.600;6.138;2023-01-15T09:51:56;3.30;99.90
37646;DHT22;23489;49.600;6.138;2023-01-15T09:55:09;3.50;99.90
37646;DHT22;23489;49.600;6.138;2023-01-15T09:57:37;3.70;99.90
37646;DHT22;23489;49.600;6.138;2023-01-15T10:00:05;3.90;99.90
37646;DHT22;23489;49.600;6.138;2023-01-15T10:02:49;4.10;99.90
37646;DHT22;23489;49.600;6.138;2023-01-15T10:05:27;4.30;99.90
37646;DHT22;23489;49.600;6.138;2023-01-15T10:10:43;4.80;99.90
37646;DHT22;23489;49.600;6.138;2023-01-15T10:13:28;5.00;99.90
37646;DHT22;23489;49.600;6.138;2023-01-15T10:15:56;5.30;99.90
37646;DHT22;23489;49.600;6.138;2023-01-15T10:18:24;5.40;99.90
37646;DHT22;23489;49.600;6.138;2023-01-15T10:21:05;5.40;99.90
37646;DHT22;23489;49.600;6.138;2023-01-15T10:26:34;5.10;99.90
37646;DHT22;23489;49.600;6.138;2023-01-15T10:34:58;5.20;99.90
37646;DHT22;23489;49.600;6.138;2023-01-15T10:40:29;5.60;99.90
37646;DHT22;23489;49.600;6.138;2023-01-15T10:43:10;5.60;99.90
37646;DHT22;23489;49.600;6.138;2023-01-15T10:46:00;5.60;99.90
37646;DHT22;23489;49.600;6.138;2023-01-15T10:51:01;5.60;99.90
37646;DHT22;23489;49.600;6.138;2023-01-15T10:53:41;5.70;99.90
37646;DHT22;23489;49.600;6.138;2023-01-15T10:56:16;5.60;99.90
37646;DHT22;23489;49.600;6.138;2023-01-15T10:58:53;5.70;99.90
37646;DHT22;23489;49.600;6.138;2023-01-15T11:01:22;6.00;99.90
37646;DHT22;23489;49.600;6.138;2023-01-15T11:03:50;6.10;99.90
37646;DHT22;23489;49.600;6.138;2023-01-15T11:06:18;6.00;99.90
37646;DHT22;23489;49.600;6.138;2023-01-15T11:08:53;6.00;99.90
37646;DHT22;23489;49.600;6.138;2023-01-15T11:14:13;6.00;99.90
37646;DHT22;23489;49.600;6.138;2023-01-15T11:17:17;6.10;99.90
37646;DHT22;23489;49.600;6.138;2023-01-15T11:22:39;6.40;99.90
37646;DHT22;23489;49.600;6.138;2023-01-15T11:25:05;6.50;99.90
37646;DHT22;23489;49.600;6.138;2023-01-15T11:27:35;6.50;99.90
37646;DHT22;23489;49.600;6.138;2023-01-15T11:30:03;6.60;99.90
37646;DHT22;23489;49.600;6.138;2023-01-15T11:32:33;6.60;99.90
37646;DHT22;23489;49.600;6.138;2023-01-15T11:37:33;6.60;99.90
37646;DHT22;23489;49.600;6.138;2023-01-15T11:40:00;6.50;99.90
37646;DHT22;23489;49.600;6.138;2023-01-15T11:42:35;6.50;99.90
37646;DHT22;23489;49.600;6.138;2023-01-15T11:45:21;6.60;99.90
37646;DHT22;23489;49.600;6.138;2023-01-15T11:48:17;6.70;99.90
37646;DHT22;23489;49.600;6.138;2023-01-15T11:51:11;6.90;99.90
37646;DHT22;23489;49.600;6.138;2023-01-15T11:53:43;6.90;99.90
37646;DHT22;23489;49.600;6.138;2023-01-15T11:56:16;7.00;99.90
37646;DHT22;23489;49.600;6.138;2023-01-15T11:59:09;7.00;99.90
37646;DHT22;23489;49.600;6.138;2023-01-15T12:01:38;6.90;99.90
37646;DHT22;23489;49.600;6.138;2023-01-15T12:04:38;6.90;99.90
37646;DHT22;23489;49.600;6.138;2023-01-15T12:07:11;6.80;99.90
37646;DHT22;23489;49.600;6.138;2023-01-15T12:10:10;6.80;99.90
37646;DHT22;23489;49.600;6.138;2023-01-15T12:15:32;6.50;99.90
37646;DHT22;23489;49.600;6.138;2023-01-15T12:26:26;6.70;99.90
37646;DHT22;23489;49.600;6.138;2023-01-15T12:29:17;6.60;99.90
37646;DHT22;23489;49.600;6.138;2023-01-15T12:35:44;6.40;99.90
37646;DHT22;23489;49.600;6.138;2023-01-15T12:37:54;6.40;99.90
37646;DHT22;23489;49.600;6.138;2023-01-15T12:40:26;6.40;99.90
37646;DHT22;23489;49.600;6.138;2023-01-15T12:42:53;6.50;99.90
37646;DHT22;23489;49.600;6.138;2023-01-15T12:45:45;6.50;99.90
37646;DHT22;23489;49.600;6.138;2023-01-15T12:48:31;6.60;99.90
37646;DHT22;23489;49.600;6.138;2023-01-15T12:51:02;6.80;99.90
37646;DHT22;23489;49.600;6.138;2023-01-15T12:53:46;7.00;99.90
37646;DHT22;23489;49.600;6.138;2023-01-15T12:56:46;7.00;99.90
37646;DHT22;23489;49.600;6.138;2023-01-15T12:59:38;7.00;99.90
37646;DHT22;23489;49.600;6.138;2023-01-15T13:10:34;6.90;99.90
37646;DHT22;23489;49.600;6.138;2023-01-15T13:13:29;6.90;99.90
37646;DHT22;23489;49.600;6.138;2023-01-15T13:21:50;7.00;99.90
37646;DHT22;23489;49.600;6.138;2023-01-15T13:32:49;6.40;99.90
37646;DHT22;23489;49.600;6.138;2023-01-15T13:35:41;6.40;99.90
37646;DHT22;23489;49.600;6.138;2023-01-15T13:38:16;6.30;99.90
37646;DHT22;23489;49.600;6.138;2023-01-15T13:40:43;6.20;99.90
37646;DHT22;23489;49.600;6.138;2023-01-15T13:43:33;6.00;99.90
37646;DHT22;23489;49.600;6.138;2023-01-15T13:46:02;5.80;99.90
37646;DHT22;23489;49.600;6.138;2023-01-15T13:48:41;5.70;99.90
37646;DHT22;23489;49.600;6.138;2023-01-15T13:51:31;5.40;99.90
37646;DHT22;23489;49.600;6.138;2023-01-15T13:54:02;5.20;99.90
37646;DHT22;23489;49.600;6.138;2023-01-15T13:56:32;5.00;99.90
37646;DHT22;23489;49.600;6.138;2023-01-15T13:59:05;5.00;99.90
37646;DHT22;23489;49.600;6.138;2023-01-15T14:01:35;5.00;99.90
37646;DHT22;23489;49.600;6.138;2023-01-15T14:06:51;5.20;99.90
37646;DHT22;23489;49.600;6.138;2023-01-15T14:23:26;5.30;99.90
37646;DHT22;23489;49.600;6.138;2023-01-15T14:26:16;5.40;99.90
37646;DHT22;23489;49.600;6.138;2023-01-15T14:32:05;5.40;99.90
37646;DHT22;23489;49.600;6.138;2023-01-15T14:34:34;5.50;99.90
37646;DHT22;23489;49.600;6.138;2023-01-15T14:39:59;5.50;99.90
37646;DHT22;23489;49.600;6.138;2023-01-15T14:42:38;5.60;99.90
37646;DHT22;23489;49.600;6.138;2023-01-15T14:45:39;5.60;99.90
37646;DHT22;23489;49.600;6.138;2023-01-15T14:48:15;5.70;99.90
37646;DHT22;23489;49.600;6.138;2023-01-15T14:50:42;5.70;99.90
37646;DHT22;23489;49.600;6.138;2023-01-15T14:56:06;5.70;99.90
37646;DHT22;23489;49.600;6.138;2023-01-15T15:01:33;5.80;99.90
37646;DHT22;23489;49.600;6.138;2023-01-15T15:09:12;5.80;99.90
37646;DHT22;23489;49.600;6.138;2023-01-15T15:11:44;5.80;99.90
37646;DHT22;23489;49.600;6.138;2023-01-15T15:14:31;5.80;99.90
37646;DHT22;23489;49.600;6.138;2023-01-15T15:17:03;5.80;99.90
37646;DHT22;23489;49.600;6.138;2023-01-15T15:19:39;5.80;99.90
37646;DHT22;23489;49.600;6.138;2023-01-15T15:22:11;5.80;99.90
37646;DHT22;23489;49.600;6.138;2023-01-15T15:24:45;5.80;99.90
37646;DHT22;23489;49.600;6.138;2023-01-15T15:29:41;5.80;99.90
37646;DHT22;23489;49.600;6.138;2023-01-15T15:32:19;5.80;99.90
37646;DHT22;23489;49.600;6.138;2023-01-15T15:34:49;5.80;99.90
37646;DHT22;23489;49.600;6.138;2023-01-15T15:37:26;5.80;99.90
37646;DHT22;23489;49.600;6.138;2023-01-15T15:40:05;5.80;99.90
37646;DHT22;23489;49.600;6.138;2023-01-15T15:42:53;5.80;99.90
37646;DHT22;23489;49.600;6.138;2023-01-15T15:45:53;5.80;99.90
37646;DHT22;23489;49.600;6.138;2023-01-15T15:48:38;5.70;99.90
37646;DHT22;23489;49.600;6.138;2023-01-15T15:51:58;5.70;99.90
37646;DHT22;23489;49.600;6.138;2023-01-15T15:54:24;5.70;99.90
37646;DHT22;23489;49.600;6.138;2023-01-15T15:57:05;5.60;99.90
37646;DHT22;23489;49.600;6.138;2023-01-15T15:59:45;5.60;99.90
37646;DHT22;23489;49.600;6.138;2023-01-15T16:02:17;5.60;99.90
37646;DHT22;23489;49.600;6.138;2023-01-15T16:04:50;5.50;99.90
37646;DHT22;23489;49.600;6.138;2023-01-15T16:07:30;5.40;99.90
37646;DHT22;23489;49.600;6.138;2023-01-15T16:10:26;5.40;99.90
37646;DHT22;23489;49.600;6.138;2023-01-15T16:12:56;5.40;99.90
37646;DHT22;23489;49.600;6.138;2023-01-15T16:15:26;5.40;99.90
37646;DHT22;23489;49.600;6.138;2023-01-15T16:17:55;5.40;99.90
37646;DHT22;23489;49.600;6.138;2023-01-15T16:20:21;5.40;99.90
37646;DHT22;23489;49.600;6.138;2023-01-15T16:22:55;5.40;99.90
37646;DHT22;23489;49.600;6.138;2023-01-15T16:27:49;5.30;99.90
37646;DHT22;23489;49.600;6.138;2023-01-15T16:30:15;5.30;99.90
37646;DHT22;23489;49.600;6.138;2023-01-15T16:32:42;5.20;99.90
37646;DHT22;23489;49.600;6.138;2023-01-15T16:35:21;5.20;99.90
37646;DHT22;23489;49.600;6.138;2023-01-15T16:37:49;5.30;99.90
37646;DHT22;23489;49.600;6.138;2023-01-15T16:40:36;5.30;99.90
37646;DHT22;23489;49.600;6.138;2023-01-15T16:43:14;5.30;99.90
37646;DHT22;23489;49.600;6.138;2023-01-15T16:50:50;5.30;99.90
37646;DHT22;23489;49.600;6.138;2023-01-15T16:55:57;5.20;99.90
37646;DHT22;23489;49.600;6.138;2023-01-15T16:58:33;5.20;99.90
37646;DHT22;23489;49.600;6.138;2023-01-15T17:00:59;5.20;99.90
37646;DHT22;23489;49.600;6.138;2023-01-15T17:03:27;5.10;99.90
37646;DHT22;23489;49.600;6.138;2023-01-15T17:06:01;5.10;99.90
37646;DHT22;23489;49.600;6.138;2023-01-15T17:08:36;5.10;99.90
37646;DHT22;23489;49.600;6.138;2023-01-15T17:11:04;5.00;99.90
37646;DHT22;23489;49.600;6.138;2023-01-15T17:13:33;5.00;99.90
37646;DHT22;23489;49.600;6.138;2023-01-15T17:16:02;5.10;99.90
37646;DHT22;23489;49.600;6.138;2023-01-15T17:18:30;5.00;99.90
37646;DHT22;23489;49.600;6.138;2023-01-15T17:20:56;5.00;99.90
37646;DHT22;23489;49.600;6.138;2023-01-15T17:23:25;4.90;99.90
37646;DHT22;23489;49.600;6.138;2023-01-15T17:25:52;5.00;99.90
37646;DHT22;23489;49.600;6.138;2023-01-15T17:28:18;5.00;99.90
37646;DHT22;23489;49.600;6.138;2023-01-15T17:30:44;5.00;99.90
37646;DHT22;23489;49.600;6.138;2023-01-15T17:33:13;5.00;99.90
37646;DHT22;23489;49.600;6.138;2023-01-15T17:35:39;5.00;99.90
37646;DHT22;23489;49.600;6.138;2023-01-15T17:38:08;5.00;99.90
37646;DHT22;23489;49.600;6.138;2023-01-15T17:40:37;4.90;99.90
37646;DHT22;23489;49.600;6.138;2023-01-15T17:43:04;4.80;99.90
37646;DHT22;23489;49.600;6.138;2023-01-15T17:45:31;4.70;99.90
37646;DHT22;23489;49.600;6.138;2023-01-15T17:47:57;4.70;99.90
37646;DHT22;23489;49.600;6.138;2023-01-15T17:50:23;4.60;99.90
37646;DHT22;23489;49.600;6.138;2023-01-15T17:52:49;4.50;99.90
37646;DHT22;23489;49.600;6.138;2023-01-15T17:55:17;4.50;99.90
37646;DHT22;23489;49.600;6.138;2023-01-15T17:58:02;4.40;99.90
37646;DHT22;23489;49.600;6.138;2023-01-15T18:00:47;4.40;99.90
37646;DHT22;23489;49.600;6.138;2023-01-15T18:03:32;4.40;99.90
37646;DHT22;23489;49.600;6.138;2023-01-15T18:06:25;4.40;99.90
37646;DHT22;23489;49.600;6.138;2023-01-15T18:08:55;4.30;99.90
37646;DHT22;23489;49.600;6.138;2023-01-15T18:11:22;4.30;99.90
37646;DHT22;23489;49.600;6.138;2023-01-15T18:13:47;4.30;99.90
37646;DHT22;23489;49.600;6.138;2023-01-15T18:16:13;4.30;99.90
37646;DHT22;23489;49.600;6.138;2023-01-15T18:18:40;4.30;99.90
37646;DHT22;23489;49.600;6.138;2023-01-15T18:21:06;4.40;99.90
37646;DHT22;23489;49.600;6.138;2023-01-15T18:23:31;4.50;99.90
37646;DHT22;23489;49.600;6.138;2023-01-15T18:26:03;4.50;99.90
37646;DHT22;23489;49.600;6.138;2023-01-15T18:28:33;4.50;99.90
37646;DHT22;23489;49.600;6.138;2023-01-15T18:30:59;4.50;99.90